Latest Weather Observations for Hobart Airport

IDT60801

Issued at 4:01 pm EST Wednesday 27 May 2015 (issued every 30 minutes, with the page automatically refreshed every 10 minutes)

About weather observations | Map of weather stations | Latest weather observations for TAS | Other Formats
Station Details ID: 094008 Name: HOBART AIRPORT Lat: -42.83 Lon: 147.50 Height: 4.0 m
Data from the previous 72 hours. | See also: Recent months at Hobart Airport
Date/Time
EST
Temp
°C
App
Temp
°C
Dew
Point
Rel
Hum
%
Delta-T
°C
Wind Press
QNH
hPa
Press
MSL
hPa
Rain
since 9 am
mm
Dir
 
Spd
km/h
Gust
km/h
Spd
kts
Gust
kts
27/03:30pm 15.4 11.1 8.0 61 3.7 N 20 32 11 17 1012.6 1012.6 0.0
27/03:00pm 16.7 12.4 8.0 56 4.4 N 20 30 11 16 1013.0 1013.0 0.0
27/02:30pm 17.3 13.1 7.6 53 4.9 N 19 30 10 16 1013.1 1013.1 0.0
27/02:00pm 16.8 12.6 8.1 56 4.4 N 20 32 11 17 1013.2 1013.2 0.0
27/01:30pm 15.2 10.9 8.0 62 3.6 N 20 32 11 17 1013.9 1013.9 0.0
27/01:00pm 15.1 10.1 8.1 63 3.5 N 24 35 13 19 1014.1 1014.1 0.0
27/12:30pm 14.8 9.4 7.8 63 3.5 N 26 39 14 21 1014.6 1014.6 0.0
27/12:00pm 15.0 9.6 7.8 62 3.6 N 26 37 14 20 1015.2 1015.2 0.0
27/11:00am 10.1 9.6 7.8 86 1.1 CALM 0 9 0 5 1016.7 1016.7 0.0
27/10:30am 9.1 8.5 7.2 88 0.9 CALM 0 0 0 0 1017.3 1017.3 0.0
27/10:00am 8.6 6.2 6.9 89 0.8 NW 9 11 5 6 1017.4 1017.4 0.0
27/09:30am 8.2 5.0 6.9 91 0.6 WNW 13 15 7 8 1017.6 1017.6 0.0
27/09:00am 7.3 4.0 6.2 93 0.5 NW 13 17 7 9 1018.0 1018.0 0.0
27/08:30am 6.8 3.8 5.9 94 0.4 NNW 11 15 6 8 1018.1 1018.1 0.0
27/08:00am 6.4 3.0 5.7 95 0.3 NW 13 15 7 8 1018.4 1018.4 0.0
27/07:30am 5.8 2.2 4.9 94 0.4 WNW 13 17 7 9 1018.5 1018.5 0.0
27/07:00am 5.6 1.3 5.1 97 0.2 NW 17 19 9 10 1018.6 1018.6 0.0
27/06:30am 5.1 0.6 4.4 95 0.3 NW 17 19 9 10 1019.0 1019.0 0.0
27/06:00am 5.7 1.0 5.0 95 0.3 NW 19 20 10 11 1019.0 1019.0 0.0
27/05:30am 5.4 1.0 4.7 95 0.3 NW 17 19 9 10 1019.3 1019.3 0.0
27/05:00am 5.6 2.4 4.9 95 0.3 NNW 11 15 6 8 1019.5 1019.5 0.0
27/04:30am 5.6 3.2 5.1 97 0.2 NNW 7 9 4 5 1019.8 1019.8 0.0
27/04:00am 5.0 0.9 4.5 97 0.2 NW 15 19 8 10 1020.3 1020.3 0.0
27/03:46am 4.3 1.6 3.6 95 0.3 NNW 7 9 4 5 1020.5 1020.5 0.0
27/03:30am 5.0 2.5 4.5 97 0.2 WNW 7 9 4 5 1020.7 1020.7 0.0
27/03:00am 5.0 2.5 4.5 97 0.2 NNW 7 9 4 5 1021.3 1021.3 0.0
27/02:30am 5.4 2.5 4.9 97 0.2 NNW 9 13 5 7 1021.6 1021.6 0.0
27/02:00am 5.3 2.5 5.1 99 0.1 NW 9 13 5 7 1021.9 1021.9 0.0
27/01:30am 5.6 3.4 5.1 97 0.2 NNW 6 7 3 4 1022.2 1022.2 0.0
27/01:21am 5.6 2.8 5.1 97 0.2 NW 9 15 5 8 1022.2 1022.2 0.0
27/01:08am 5.2 1.9 4.5 95 0.3 NW 11 11 6 6 1022.2 1022.2 0.0
27/01:00am 5.3 2.4 4.6 95 0.3 NW 9 11 5 6 1022.2 1022.2 0.0
27/12:30am 5.6 3.4 5.1 97 0.2 WNW 6 7 3 4 1022.5 1022.5 0.0
27/12:00am 5.6 2.7 4.9 95 0.3 WNW 9 9 5 5 1023.0 1023.1 0.0
 
Date/Time
EST
Temp
°C
App
Temp
°C
Dew
Point
Rel
Hum
%
Delta-T
°C
Wind Press
QNH
hPa
Press
MSL
hPa
Rain
since 9 am
mm
Dir
 
Spd
km/h
Gust
km/h
Spd
kts
Gust
kts
26/11:49pm 5.7 3.3 5.2 97 0.2 NW 7 9 4 5 1023.1 1023.2 0.0
26/11:30pm 6.0 3.2 5.3 95 0.3 NW 9 11 5 6 1023.3 1023.4 0.0
26/11:00pm 6.3 3.6 5.8 97 0.2 NW 9 11 5 6 1023.8 1023.9 0.0
26/10:30pm 6.6 4.0 5.9 95 0.3 NW 9 9 5 5 1024.0 1024.1 0.0
26/10:14pm 6.7 4.0 5.8 94 0.4 NW 9 13 5 7 1024.2 1024.3 0.0
26/10:00pm 5.3 3.0 4.8 97 0.2 WNW 6 9 3 5 1024.2 1024.3 0.0
26/09:55pm 5.6 3.9 3.9 89 0.7 WNW 2 9 1 5 1024.2 1024.3 0.0
26/09:42pm 6.4 5.5 6.0 97 0.2 CALM 0 0 0 0 1024.3 1024.4 0.0
26/09:30pm 5.6 4.4 4.7 94 0.4 CALM 0 0 0 0 1024.2 1024.3 0.0
26/09:27pm 6.0 4.9 5.3 95 0.3 CALM 0 0 0 0 1024.3 1024.4 0.0
26/09:09pm 5.8 4.7 5.3 97 0.2 CALM 0 0 0 0 1024.3 1024.4 0.0
26/09:00pm 6.8 6.0 6.4 97 0.2 CALM 0 0 0 0 1024.4 1024.5 0.0
26/08:30pm 8.0 6.9 6.9 93 0.5 WNW 2 7 1 4 1024.5 1024.6 0.0
26/08:00pm 8.0 6.9 6.7 91 0.6 SW 2 7 1 4 1024.7 1024.8 0.0
26/07:30pm 9.5 7.3 8.0 90 0.7 S 9 11 5 6 1024.8 1024.9 0.0
26/07:00pm 9.7 7.5 7.8 88 0.9 SSE 9 9 5 5 1024.8 1024.9 0.0
26/06:30pm 10.4 8.2 7.9 84 1.2 SSW 9 11 5 6 1024.9 1025.0 0.0
26/05:30pm 11.1 8.2 8.2 82 1.4 S 13 15 7 8 1024.8 1024.9 0.0
26/05:00pm 11.9 8.6 8.2 78 1.8 S 15 19 8 10 1024.8 1024.9 0.0
26/04:30pm 12.1 8.8 8.2 77 1.9 SSE 15 19 8 10 1024.8 1024.9 0.0
26/04:00pm 12.4 9.6 8.6 77 1.9 SSE 13 15 7 8 1024.8 1024.9 0.0
26/03:30pm 13.0 10.5 8.1 72 2.4 SSE 11 13 6 7 1024.8 1024.9 0.0
26/03:00pm 13.1 10.6 8.0 71 2.5 S 11 13 6 7 1024.7 1024.8 0.0
26/02:30pm 13.6 10.7 8.1 69 2.7 SSE 13 15 7 8 1024.9 1025.0 0.0
26/02:00pm 13.4 10.7 8.8 74 2.3 SSE 13 15 7 8 1024.9 1025.0 0.0
26/01:30pm 13.5 10.4 8.9 74 2.3 SSE 15 17 8 9 1025.1 1025.2 0.0
26/01:00pm 13.9 10.7 8.3 69 2.8 SSE 15 17 8 9 1025.3 1025.4 0.0
26/12:30pm 14.4 12.7 8.4 67 3.0 ENE 7 11 4 6 1025.5 1025.6 0.0
26/12:00pm 14.5 11.8 7.3 62 3.5 NNE 11 11 6 6 1025.9 1026.0 0.0
26/11:30am 14.2 12.0 7.7 65 3.2 NNE 9 11 5 6 1026.4 1026.5 0.0
26/11:00am 13.5 12.2 7.6 67 2.9 NNW 4 7 2 4 1026.7 1026.8 0.0
26/10:30am 12.1 9.9 6.4 68 2.7 WNW 7 9 4 5 1027.0 1027.1 0.0
26/10:00am 10.7 8.6 6.6 76 1.9 N 7 9 4 5 1027.0 1027.1 0.0
26/09:30am 9.6 7.4 6.1 79 1.6 N 7 9 4 5 1027.0 1027.1 0.0
26/09:00am 9.2 6.6 6.1 81 1.4 NW 9 11 5 6 1027.1 1027.2 0.0
26/08:30am 8.0 6.0 6.2 88 0.8 NNW 6 7 3 4 1027.0 1027.1 0.0
26/08:00am 7.4 5.1 5.6 88 0.8 W 7 9 4 5 1026.8 1026.9 0.0
26/07:30am 8.0 5.9 6.5 90 0.7 N 7 7 4 4 1026.7 1026.8 0.0
26/07:00am 6.2 3.3 4.8 91 0.6 NE 9 11 5 6 1026.3 1026.4 0.0
26/06:30am 7.5 4.8 5.5 87 0.9 W 9 11 5 6 1026.0 1026.1 0.0
26/06:00am 9.4 8.7 6.8 84 1.2 CALM 0 0 0 0 1025.9 1026.0 0.0
26/05:30am 8.7 6.5 6.3 85 1.1 SE 7 9 4 5 1025.7 1025.8 0.0
26/05:00am 8.6 6.0 6.0 84 1.2 E 9 13 5 7 1025.6 1025.7 0.0
26/04:30am 8.5 5.8 5.6 82 1.3 ENE 9 11 5 6 1025.4 1025.5 0.0
26/04:00am 9.5 7.8 5.8 78 1.7 SW 4 7 2 4 1025.3 1025.4 0.0
26/03:30am 10.2 7.2 5.8 74 2.0 WSW 11 13 6 7 1025.3 1025.4 0.0
26/03:00am 10.9 7.5 5.7 70 2.4 NNW 13 17 7 9 1025.3 1025.4 0.0
26/02:30am 9.6 6.9 5.4 75 1.9 N 9 13 5 7 1025.5 1025.6 0.0
26/02:00am 9.7 6.5 5.0 72 2.1 NNW 11 15 6 8 1025.5 1025.6 0.0
26/01:30am 9.9 7.5 4.5 69 2.4 W 6 9 3 5 1025.4 1025.5 0.0
26/01:00am 9.2 5.9 4.7 73 2.0 NNW 11 19 6 10 1025.4 1025.5 0.0
26/12:30am 10.1 6.8 4.7 69 2.4 NNW 11 15 6 8 1025.4 1025.5 0.0
26/12:00am 10.5 7.6 4.7 67 2.6 N 9 15 5 8 1025.4 1025.5 0.0
 
Date/Time
EST
Temp
°C
App
Temp
°C
Dew
Point
Rel
Hum
%
Delta-T
°C
Wind Press
QNH
hPa
Press
MSL
hPa
Rain
since 9 am
mm
Dir
 
Spd
km/h
Gust
km/h
Spd
kts
Gust
kts
25/11:30pm 10.2 7.3 4.6 68 2.5 NNE 9 19 5 10 1025.5 1025.6 0.0
25/11:00pm 9.3 5.7 4.8 73 2.0 NNE 13 19 7 10 1025.3 1025.4 0.0
25/10:30pm 8.3 5.1 4.9 79 1.5 N 11 17 6 9 1025.6 1025.7 0.0
25/10:00pm 9.0 5.7 4.4 73 2.0 N 11 15 6 8 1025.8 1025.9 0.0
25/09:30pm 9.1 5.4 4.6 73 2.0 NW 13 15 7 8 1025.9 1026.0 0.0
25/09:00pm 7.5 3.1 4.5 81 1.3 NNW 17 22 9 12 1025.9 1026.0 0.0
25/08:30pm 8.5 5.3 4.9 78 1.6 NNW 11 15 6 8 1025.9 1026.0 0.0
25/08:00pm 8.7 4.3 4.6 75 1.8 NW 17 24 9 13 1026.1 1026.2 0.0
25/07:30pm 10.1 5.3 4.5 68 2.5 NW 19 24 10 13 1026.2 1026.3 0.0
25/07:00pm 8.6 4.7 5.5 81 1.4 NW 15 19 8 10 1026.1 1026.2 0.0
25/06:30pm 9.7 6.2 5.5 75 1.9 NW 13 15 7 8 1026.0 1026.1 0.0
25/06:00pm 10.5 6.9 4.9 68 2.5 NNW 13 17 7 9 1026.0 1026.1 0.0
25/05:30pm 10.5 7.3 5.2 70 2.4 NW 11 15 6 8 1025.9 1026.0 0.0
25/05:00pm 11.0 8.2 5.3 68 2.6 NNW 9 15 5 8 1025.7 1025.8 0.0
25/04:30pm 11.0 8.3 5.8 70 2.4 NNW 9 13 5 7 1025.7 1025.8 0.0
25/04:00pm 12.1 9.0 5.4 63 3.1 NNW 11 17 6 9 1025.7 1025.8 0.0
25/03:30pm 12.2 8.3 5.2 62 3.2 NW 15 22 8 12 1026.1 1026.2 0.0
25/03:00pm 12.1 8.2 5.4 63 3.1 NNW 15 20 8 11 1026.0 1026.1 0.0
25/02:30pm 12.2 8.2 5.0 61 3.3 NNW 15 20 8 11 1026.1 1026.2 0.0
25/02:00pm 12.0 7.6 5.0 62 3.2 NW 17 24 9 13 1026.3 1026.4 0.0
25/01:30pm 12.2 7.3 5.2 62 3.2 NW 20 28 11 15 1026.5 1026.6 0.0
25/01:00pm 12.0 7.0 4.5 60 3.4 NNW 20 28 11 15 1026.7 1026.8 0.0
25/12:30pm 11.7 7.2 4.3 60 3.3 NW 17 22 9 12 1026.9 1027.0 0.0
25/12:00pm 12.5 7.6 4.3 57 3.7 NW 19 26 10 14 1027.1 1027.2 0.0
25/11:30am 11.9 6.4 3.8 57 3.6 NW 22 32 12 17 1027.5 1027.6 0.0
25/11:00am 10.8 5.7 4.0 63 3.0 NW 20 28 11 15 1028.1 1028.2 0.0
25/10:30am 10.2 6.4 3.8 64 2.8 NNW 13 22 7 12 1028.3 1028.4 0.0
25/10:00am 8.9 5.1 3.8 70 2.2 NW 13 17 7 9 1028.4 1028.5 0.0
25/09:30am 6.9 3.0 3.3 78 1.5 NW 13 17 7 9 1028.6 1028.7 0.0
25/09:00am 6.3 2.7 2.9 79 1.4 NNW 11 15 6 8 1028.6 1028.7 0.0
25/08:30am 6.4 2.9 3.3 80 1.3 N 11 17 6 9 1028.8 1028.9 -
25/08:00am 6.7 2.3 2.6 75 1.7 NNW 15 22 8 12 1028.8 1028.9 -
25/07:30am 6.4 2.3 2.5 76 1.6 NNW 13 17 7 9 1028.7 1028.8 -
25/07:00am 5.6 2.4 2.9 83 1.1 N 9 15 5 8 1028.5 1028.6 -
25/06:30am 6.1 2.8 2.7 79 1.4 N 9 11 5 6 1028.4 1028.5 0.0
25/06:00am 5.3 1.7 2.8 84 1.0 N 11 19 6 10 1028.3 1028.4 0.0
25/05:30am 5.8 2.1 2.3 78 1.4 NNW 11 15 6 8 1028.1 1028.2 0.0
25/05:00am 5.3 0.9 2.6 83 1.1 NNW 15 20 8 11 1028.2 1028.3 0.0
25/04:30am 5.4 1.3 2.4 81 1.2 NNW 13 19 7 10 1028.4 1028.5 0.0
25/04:00am 4.9 0.8 2.4 84 1.0 NNW 13 19 7 10 1028.4 1028.5 0.0
25/03:30am 4.7 0.3 2.5 86 0.9 NNW 15 19 8 10 1028.5 1028.6 0.0
25/03:00am 3.9 -0.6 2.1 88 0.7 NW 15 17 8 9 1028.8 1028.9 0.0
25/02:30am 4.3 0.6 2.3 87 0.8 NW 11 15 6 8 1028.8 1028.9 0.0
25/02:00am 4.5 0.4 2.2 85 0.9 NNW 13 19 7 10 1028.8 1028.9 0.0
25/01:30am 4.8 1.9 2.8 87 0.8 W 7 13 4 7 1029.0 1029.1 0.0
25/01:00am 4.7 0.3 2.5 86 0.9 WNW 15 17 8 9 1029.1 1029.2 0.0
25/12:30am 5.1 1.1 3.1 87 0.8 NW 13 17 7 9 1029.2 1029.3 0.0
25/12:00am 4.9 0.5 2.9 87 0.8 NW 15 17 8 9 1029.2 1029.3 0.0
 
Date/Time
EST
Temp
°C
App
Temp
°C
Dew
Point
Rel
Hum
%
Delta-T
°C
Wind Press
QNH
hPa
Press
MSL
hPa
Rain
since 9 am
mm
Dir
 
Spd
km/h
Gust
km/h
Spd
kts
Gust
kts
24/11:30pm 5.0 0.7 3.0 87 0.8 NW 15 17 8 9 1029.3 1029.4 0.0
24/11:00pm 5.0 1.0 2.8 86 0.9 NW 13 17 7 9 1029.3 1029.4 0.0
24/10:30pm 5.1 1.1 3.1 87 0.8 NW 13 17 7 9 1029.2 1029.3 0.0
24/10:00pm 4.8 0.8 3.1 89 0.7 NW 13 15 7 8 1029.4 1029.5 0.0
24/09:30pm 5.1 2.3 3.1 87 0.8 NNW 7 9 4 5 1029.2 1029.3 0.0
24/09:00pm 4.8 1.2 3.1 89 0.7 NW 11 13 6 7 1029.3 1029.4 0.0
24/08:30pm 5.0 2.2 3.0 87 0.8 WNW 7 11 4 6 1029.2 1029.3 0.0
24/08:00pm 5.2 2.5 2.7 84 1.0 NW 6 7 3 4 1029.3 1029.4 0.0
24/07:30pm 5.5 1.5 2.8 83 1.1 WNW 13 13 7 7 1029.3 1029.4 0.0
24/07:00pm 5.6 2.8 2.9 83 1.1 WNW 7 11 4 6 1029.2 1029.3 0.0
24/06:30pm 4.9 3.3 2.7 86 0.9 CALM 0 0 0 0 1029.0 1029.1 0.0
24/06:00pm 6.7 4.9 3.4 79 1.4 WSW 2 6 1 3 1028.8 1028.9 0.0
24/05:30pm 6.9 5.5 3.8 81 1.3 CALM 0 0 0 0 1028.6 1028.7 0.0
24/05:00pm 7.2 4.8 4.2 81 1.3 E 6 7 3 4 1028.5 1028.6 0.0
24/04:30pm 8.4 5.9 4.5 76 1.7 ESE 7 9 4 5 1028.6 1028.7 0.0

Other Formats:

Comma delimited format used in spreadsheet applications
http://www.bom.gov.au/fwo/IDT60801/IDT60801.94975.axf

JavaScript Object Notation format (JSON) in row-major order
http://www.bom.gov.au/fwo/IDT60801/IDT60801.94975.json